sensor_id;sensor_type;location;lat;lon;timestamp;temperature;humidity
24814;DHT22;12904;50.088;11.414;2023-01-10T00:00:47;4.50;99.90
24814;DHT22;12904;50.088;11.414;2023-01-10T00:03:13;4.50;99.90
24814;DHT22;12904;50.088;11.414;2023-01-10T00:05:39;4.60;99.90
24814;DHT22;12904;50.088;11.414;2023-01-10T00:08:05;4.60;99.90
24814;DHT22;12904;50.088;11.414;2023-01-10T00:10:32;4.60;99.90
24814;DHT22;12904;50.088;11.414;2023-01-10T00:12:58;4.60;99.90
24814;DHT22;12904;50.088;11.414;2023-01-10T00:15:42;4.60;99.90
24814;DHT22;12904;50.088;11.414;2023-01-10T00:18:08;4.60;99.90
24814;DHT22;12904;50.088;11.414;2023-01-10T00:20:34;4.60;99.90
24814;DHT22;12904;50.088;11.414;2023-01-10T00:23:00;4.60;99.90
24814;DHT22;12904;50.088;11.414;2023-01-10T00:25:25;4.60;99.90
24814;DHT22;12904;50.088;11.414;2023-01-10T00:27:55;4.60;99.90
24814;DHT22;12904;50.088;11.414;2023-01-10T00:30:51;4.60;99.90
24814;DHT22;12904;50.088;11.414;2023-01-10T00:33:21;4.60;99.90
24814;DHT22;12904;50.088;11.414;2023-01-10T00:35:47;4.60;99.90
24814;DHT22;12904;50.088;11.414;2023-01-10T00:38:13;4.60;99.90
24814;DHT22;12904;50.088;11.414;2023-01-10T00:40:39;4.60;99.90
24814;DHT22;12904;50.088;11.414;2023-01-10T00:43:05;4.60;99.90
24814;DHT22;12904;50.088;11.414;2023-01-10T00:45:49;4.60;99.90
24814;DHT22;12904;50.088;11.414;2023-01-10T00:48:15;4.60;99.90
24814;DHT22;12904;50.088;11.414;2023-01-10T00:50:42;4.60;99.90
24814;DHT22;12904;50.088;11.414;2023-01-10T00:53:08;4.60;99.90
24814;DHT22;12904;50.088;11.414;2023-01-10T00:55:34;4.60;99.90
24814;DHT22;12904;50.088;11.414;2023-01-10T00:58:00;4.60;99.90
24814;DHT22;12904;50.088;11.414;2023-01-10T01:00:26;4.60;99.90
24814;DHT22;12904;50.088;11.414;2023-01-10T01:02:52;4.60;99.90
24814;DHT22;12904;50.088;11.414;2023-01-10T01:05:18;4.60;99.90
24814;DHT22;12904;50.088;11.414;2023-01-10T01:07:49;4.60;99.90
24814;DHT22;12904;50.088;11.414;2023-01-10T01:10:16;4.70;99.90
24814;DHT22;12904;50.088;11.414;2023-01-10T01:12:55;4.60;99.90
24814;DHT22;12904;50.088;11.414;2023-01-10T01:15:22;4.70;99.90
24814;DHT22;12904;50.088;11.414;2023-01-10T01:17:48;4.70;99.90
24814;DHT22;12904;50.088;11.414;2023-01-10T01:20:14;4.70;99.90
24814;DHT22;12904;50.088;11.414;2023-01-10T01:22:40;4.70;99.90
24814;DHT22;12904;50.088;11.414;2023-01-10T01:25:06;4.70;99.90
24814;DHT22;12904;50.088;11.414;2023-01-10T01:27:32;4.70;99.90
24814;DHT22;12904;50.088;11.414;2023-01-10T01:29:59;4.70;99.90
24814;DHT22;12904;50.088;11.414;2023-01-10T01:32:25;4.70;99.90
24814;DHT22;12904;50.088;11.414;2023-01-10T01:34:50;4.70;99.90
24814;DHT22;12904;50.088;11.414;2023-01-10T01:37:16;4.70;99.90
24814;DHT22;12904;50.088;11.414;2023-01-10T01:39:44;4.60;99.90
24814;DHT22;12904;50.088;11.414;2023-01-10T01:42:37;4.60;99.90
24814;DHT22;12904;50.088;11.414;2023-01-10T01:47:47;4.60;99.90
24814;DHT22;12904;50.088;11.414;2023-01-10T01:50:20;4.60;99.90
24814;DHT22;12904;50.088;11.414;2023-01-10T01:52:48;4.60;99.90
24814;DHT22;12904;50.088;11.414;2023-01-10T01:55:15;4.60;99.90
24814;DHT22;12904;50.088;11.414;2023-01-10T01:57:40;4.60;99.90
24814;DHT22;12904;50.088;11.414;2023-01-10T02:00:06;4.60;99.90
24814;DHT22;12904;50.088;11.414;2023-01-10T02:02:39;4.60;99.90
24814;DHT22;12904;50.088;11.414;2023-01-10T02:05:12;4.60;99.90
24814;DHT22;12904;50.088;11.414;2023-01-10T02:07:42;4.60;99.90
24814;DHT22;12904;50.088;11.414;2023-01-10T02:10:16;4.60;99.90
24814;DHT22;12904;50.088;11.414;2023-01-10T02:12:44;4.60;99.90
24814;DHT22;12904;50.088;11.414;2023-01-10T02:15:12;4.60;99.90
24814;DHT22;12904;50.088;11.414;2023-01-10T02:17:40;4.60;99.90
24814;DHT22;12904;50.088;11.414;2023-01-10T02:20:10;4.60;99.90
24814;DHT22;12904;50.088;11.414;2023-01-10T02:34:16;4.70;99.90
24814;DHT22;12904;50.088;11.414;2023-01-10T02:39:29;4.70;99.90
24814;DHT22;12904;50.088;11.414;2023-01-10T02:42:03;4.70;99.90
24814;DHT22;12904;50.088;11.414;2023-01-10T02:45:11;4.70;99.90
24814;DHT22;12904;50.088;11.414;2023-01-10T02:47:39;4.70;99.90
24814;DHT22;12904;50.088;11.414;2023-01-10T02:52:50;4.70;99.90
24814;DHT22;12904;50.088;11.414;2023-01-10T02:55:16;4.70;99.90
24814;DHT22;12904;50.088;11.414;2023-01-10T03:03:35;4.70;99.90
24814;DHT22;12904;50.088;11.414;2023-01-10T03:06:31;4.70;99.90
24814;DHT22;12904;50.088;11.414;2023-01-10T03:09:06;4.80;99.90
24814;DHT22;12904;50.088;11.414;2023-01-10T03:11:35;4.70;99.90
24814;DHT22;12904;50.088;11.414;2023-01-10T03:14:15;4.70;99.90
24814;DHT22;12904;50.088;11.414;2023-01-10T03:16:45;4.70;99.90
24814;DHT22;12904;50.088;11.414;2023-01-10T03:19:16;4.70;99.90
24814;DHT22;12904;50.088;11.414;2023-01-10T03:21:43;4.80;99.90
24814;DHT22;12904;50.088;11.414;2023-01-10T03:24:24;4.70;99.90
24814;DHT22;12904;50.088;11.414;2023-01-10T03:27:06;4.80;99.90
24814;DHT22;12904;50.088;11.414;2023-01-10T03:29:53;4.70;99.90
24814;DHT22;12904;50.088;11.414;2023-01-10T03:32:24;4.70;99.90
24814;DHT22;12904;50.088;11.414;2023-01-10T03:34:51;4.70;99.90
24814;DHT22;12904;50.088;11.414;2023-01-10T03:46:11;4.70;99.90
24814;DHT22;12904;50.088;11.414;2023-01-10T03:48:41;4.70;99.90
24814;DHT22;12904;50.088;11.414;2023-01-10T03:51:09;4.70;99.90
24814;DHT22;12904;50.088;11.414;2023-01-10T03:53:37;4.80;99.90
24814;DHT22;12904;50.088;11.414;2023-01-10T03:56:04;4.70;99.90
24814;DHT22;12904;50.088;11.414;2023-01-10T03:58:30;4.80;99.90
24814;DHT22;12904;50.088;11.414;2023-01-10T04:00:56;4.80;99.90
24814;DHT22;12904;50.088;11.414;2023-01-10T04:03:21;4.80;99.90
24814;DHT22;12904;50.088;11.414;2023-01-10T04:05:47;4.80;99.90
24814;DHT22;12904;50.088;11.414;2023-01-10T04:08:12;4.70;99.90
24814;DHT22;12904;50.088;11.414;2023-01-10T04:10:38;4.80;99.90
24814;DHT22;12904;50.088;11.414;2023-01-10T04:13:04;4.80;99.90
24814;DHT22;12904;50.088;11.414;2023-01-10T04:15:30;4.80;99.90
24814;DHT22;12904;50.088;11.414;2023-01-10T04:17:56;4.70;99.90
24814;DHT22;12904;50.088;11.414;2023-01-10T04:20:22;4.70;99.90
24814;DHT22;12904;50.088;11.414;2023-01-10T04:22:51;4.60;99.90
24814;DHT22;12904;50.088;11.414;2023-01-10T04:25:16;4.60;99.90
24814;DHT22;12904;50.088;11.414;2023-01-10T04:27:42;4.60;99.90
24814;DHT22;12904;50.088;11.414;2023-01-10T04:30:08;4.60;99.90
24814;DHT22;12904;50.088;11.414;2023-01-10T04:32:34;4.70;99.90
24814;DHT22;12904;50.088;11.414;2023-01-10T04:35:00;4.70;99.90
24814;DHT22;12904;50.088;11.414;2023-01-10T04:37:25;4.70;99.90
24814;DHT22;12904;50.088;11.414;2023-01-10T04:39:51;4.70;99.90
24814;DHT22;12904;50.088;11.414;2023-01-10T04:42:17;4.70;99.90
24814;DHT22;12904;50.088;11.414;2023-01-10T04:44:42;4.70;99.90
24814;DHT22;12904;50.088;11.414;2023-01-10T04:47:08;4.70;99.90
24814;DHT22;12904;50.088;11.414;2023-01-10T04:49:34;4.70;99.90
24814;DHT22;12904;50.088;11.414;2023-01-10T04:52:00;4.70;99.90
24814;DHT22;12904;50.088;11.414;2023-01-10T04:54:25;4.70;99.90
24814;DHT22;12904;50.088;11.414;2023-01-10T04:56:51;4.70;99.90
24814;DHT22;12904;50.088;11.414;2023-01-10T04:59:17;4.70;99.90
24814;DHT22;12904;50.088;11.414;2023-01-10T05:01:42;4.70;99.90
24814;DHT22;12904;50.088;11.414;2023-01-10T05:04:08;4.70;99.90
24814;DHT22;12904;50.088;11.414;2023-01-10T05:06:34;4.80;99.90
24814;DHT22;12904;50.088;11.414;2023-01-10T05:09:00;4.80;99.90
24814;DHT22;12904;50.088;11.414;2023-01-10T05:11:26;4.80;99.90
24814;DHT22;12904;50.088;11.414;2023-01-10T05:13:51;4.80;99.90
24814;DHT22;12904;50.088;11.414;2023-01-10T05:16:17;4.80;99.90
24814;DHT22;12904;50.088;11.414;2023-01-10T05:18:43;4.80;99.90
24814;DHT22;12904;50.088;11.414;2023-01-10T05:21:10;4.80;99.90
24814;DHT22;12904;50.088;11.414;2023-01-10T05:23:37;4.80;99.90
24814;DHT22;12904;50.088;11.414;2023-01-10T05:26:14;4.70;99.90
24814;DHT22;12904;50.088;11.414;2023-01-10T05:28:40;4.70;99.90
24814;DHT22;12904;50.088;11.414;2023-01-10T05:31:08;4.60;99.90
24814;DHT22;12904;50.088;11.414;2023-01-10T05:33:34;4.60;99.90
24814;DHT22;12904;50.088;11.414;2023-01-10T05:36:00;4.60;99.90
24814;DHT22;12904;50.088;11.414;2023-01-10T05:38:28;4.60;99.90
24814;DHT22;12904;50.088;11.414;2023-01-10T05:40:55;4.70;99.90
24814;DHT22;12904;50.088;11.414;2023-01-10T05:43:22;4.70;99.90
24814;DHT22;12904;50.088;11.414;2023-01-10T05:45:48;4.70;99.90
24814;DHT22;12904;50.088;11.414;2023-01-10T05:48:13;4.70;99.90
24814;DHT22;12904;50.088;11.414;2023-01-10T05:50:39;4.80;99.90
24814;DHT22;12904;50.088;11.414;2023-01-10T05:53:04;4.80;99.90
24814;DHT22;12904;50.088;11.414;2023-01-10T05:55:31;4.80;99.90
24814;DHT22;12904;50.088;11.414;2023-01-10T05:57:57;4.80;99.90
24814;DHT22;12904;50.088;11.414;2023-01-10T06:00:23;4.80;99.90
24814;DHT22;12904;50.088;11.414;2023-01-10T06:02:49;4.80;99.90
24814;DHT22;12904;50.088;11.414;2023-01-10T06:05:14;4.80;99.90
24814;DHT22;12904;50.088;11.414;2023-01-10T06:07:40;4.90;99.90
24814;DHT22;12904;50.088;11.414;2023-01-10T06:10:06;4.80;99.90
24814;DHT22;12904;50.088;11.414;2023-01-10T06:12:32;4.80;99.90
24814;DHT22;12904;50.088;11.414;2023-01-10T06:14:58;4.80;99.90
24814;DHT22;12904;50.088;11.414;2023-01-10T06:17:23;4.80;99.90
24814;DHT22;12904;50.088;11.414;2023-01-10T06:19:49;4.80;99.90
24814;DHT22;12904;50.088;11.414;2023-01-10T06:22:16;4.70;99.90
24814;DHT22;12904;50.088;11.414;2023-01-10T06:24:42;4.70;99.90
24814;DHT22;12904;50.088;11.414;2023-01-10T06:27:08;4.70;99.90
24814;DHT22;12904;50.088;11.414;2023-01-10T06:29:34;4.60;99.90
24814;DHT22;12904;50.088;11.414;2023-01-10T06:31:59;4.50;99.90
24814;DHT22;12904;50.088;11.414;2023-01-10T06:34:25;4.40;99.90
24814;DHT22;12904;50.088;11.414;2023-01-10T06:36:51;4.40;99.90
24814;DHT22;12904;50.088;11.414;2023-01-10T06:39:16;4.40;99.90
24814;DHT22;12904;50.088;11.414;2023-01-10T06:41:42;4.30;99.90
24814;DHT22;12904;50.088;11.414;2023-01-10T06:44:07;4.30;99.90
24814;DHT22;12904;50.088;11.414;2023-01-10T06:46:33;4.30;99.90
24814;DHT22;12904;50.088;11.414;2023-01-10T06:48:59;4.30;99.90
24814;DHT22;12904;50.088;11.414;2023-01-10T06:51:24;4.30;99.90
24814;DHT22;12904;50.088;11.414;2023-01-10T06:53:50;4.30;99.90
24814;DHT22;12904;50.088;11.414;2023-01-10T06:56:16;4.30;99.90
24814;DHT22;12904;50.088;11.414;2023-01-10T06:58:41;4.40;99.90
24814;DHT22;12904;50.088;11.414;2023-01-10T07:01:15;4.40;99.90
24814;DHT22;12904;50.088;11.414;2023-01-10T07:03:41;4.40;99.90
24814;DHT22;12904;50.088;11.414;2023-01-10T07:06:07;4.50;99.90
24814;DHT22;12904;50.088;11.414;2023-01-10T07:08:37;4.50;99.90
24814;DHT22;12904;50.088;11.414;2023-01-10T07:11:04;4.50;99.90
24814;DHT22;12904;50.088;11.414;2023-01-10T07:13:29;4.60;99.90
24814;DHT22;12904;50.088;11.414;2023-01-10T07:16:06;4.60;99.90
24814;DHT22;12904;50.088;11.414;2023-01-10T07:18:36;4.60;99.90
24814;DHT22;12904;50.088;11.414;2023-01-10T07:21:02;4.60;99.90
24814;DHT22;12904;50.088;11.414;2023-01-10T07:23:28;4.50;99.90
24814;DHT22;12904;50.088;11.414;2023-01-10T07:26:02;4.50;99.90
24814;DHT22;12904;50.088;11.414;2023-01-10T07:28:28;4.60;99.90
24814;DHT22;12904;50.088;11.414;2023-01-10T07:30:57;4.60;99.90
24814;DHT22;12904;50.088;11.414;2023-01-10T07:33:24;4.60;99.90
24814;DHT22;12904;50.088;11.414;2023-01-10T07:35:49;4.60;99.90
24814;DHT22;12904;50.088;11.414;2023-01-10T07:38:15;4.60;99.90
24814;DHT22;12904;50.088;11.414;2023-01-10T07:40:41;4.50;99.90
24814;DHT22;12904;50.088;11.414;2023-01-10T07:43:06;4.50;99.90
24814;DHT22;12904;50.088;11.414;2023-01-10T07:45:32;4.40;99.90
24814;DHT22;12904;50.088;11.414;2023-01-10T07:48:00;4.30;99.90
24814;DHT22;12904;50.088;11.414;2023-01-10T07:50:27;4.30;99.90
24814;DHT22;12904;50.088;11.414;2023-01-10T07:52:53;4.30;99.90
24814;DHT22;12904;50.088;11.414;2023-01-10T07:55:19;4.30;99.90
24814;DHT22;12904;50.088;11.414;2023-01-10T07:57:44;4.30;99.90
24814;DHT22;12904;50.088;11.414;2023-01-10T08:00:11;4.30;99.90
24814;DHT22;12904;50.088;11.414;2023-01-10T08:02:36;4.30;99.90
24814;DHT22;12904;50.088;11.414;2023-01-10T08:05:03;4.40;99.90
24814;DHT22;12904;50.088;11.414;2023-01-10T08:07:30;4.50;99.90
24814;DHT22;12904;50.088;11.414;2023-01-10T08:09:55;4.50;99.90
24814;DHT22;12904;50.088;11.414;2023-01-10T08:12:21;4.60;99.90
24814;DHT22;12904;50.088;11.414;2023-01-10T08:14:49;4.60;99.90
24814;DHT22;12904;50.088;11.414;2023-01-10T08:17:15;4.70;99.90
24814;DHT22;12904;50.088;11.414;2023-01-10T08:19:40;4.80;99.90
24814;DHT22;12904;50.088;11.414;2023-01-10T08:22:06;4.80;99.90
24814;DHT22;12904;50.088;11.414;2023-01-10T08:24:32;4.90;99.90
24814;DHT22;12904;50.088;11.414;2023-01-10T08:26:58;4.90;99.90
24814;DHT22;12904;50.088;11.414;2023-01-10T08:29:23;5.00;99.90
24814;DHT22;12904;50.088;11.414;2023-01-10T08:31:49;5.10;99.90
24814;DHT22;12904;50.088;11.414;2023-01-10T08:34:15;5.10;99.90
24814;DHT22;12904;50.088;11.414;2023-01-10T08:36:41;5.10;99.90
24814;DHT22;12904;50.088;11.414;2023-01-10T08:39:07;5.10;99.90
24814;DHT22;12904;50.088;11.414;2023-01-10T08:41:33;5.10;99.90
24814;DHT22;12904;50.088;11.414;2023-01-10T08:43:58;5.20;99.90
24814;DHT22;12904;50.088;11.414;2023-01-10T08:46:25;5.20;99.90
24814;DHT22;12904;50.088;11.414;2023-01-10T08:48:51;5.30;99.90
24814;DHT22;12904;50.088;11.414;2023-01-10T08:51:17;5.30;99.90
24814;DHT22;12904;50.088;11.414;2023-01-10T08:53:43;5.30;99.90
24814;DHT22;12904;50.088;11.414;2023-01-10T08:56:09;5.30;99.90
24814;DHT22;12904;50.088;11.414;2023-01-10T08:58:35;5.40;99.90
24814;DHT22;12904;50.088;11.414;2023-01-10T09:01:07;5.40;99.90
24814;DHT22;12904;50.088;11.414;2023-01-10T09:03:33;5.40;99.90
24814;DHT22;12904;50.088;11.414;2023-01-10T09:06:00;5.40;99.90
24814;DHT22;12904;50.088;11.414;2023-01-10T09:08:27;5.40;99.90
24814;DHT22;12904;50.088;11.414;2023-01-10T09:10:53;5.40;99.90
24814;DHT22;12904;50.088;11.414;2023-01-10T09:13:18;5.50;99.90
24814;DHT22;12904;50.088;11.414;2023-01-10T09:15:44;5.50;99.90
24814;DHT22;12904;50.088;11.414;2023-01-10T09:18:11;5.50;99.90
24814;DHT22;12904;50.088;11.414;2023-01-10T09:20:39;5.60;99.90
24814;DHT22;12904;50.088;11.414;2023-01-10T09:23:10;5.60;99.90
24814;DHT22;12904;50.088;11.414;2023-01-10T09:25:36;5.60;99.90
24814;DHT22;12904;50.088;11.414;2023-01-10T09:28:03;5.70;99.90
24814;DHT22;12904;50.088;11.414;2023-01-10T09:30:29;5.60;99.90
24814;DHT22;12904;50.088;11.414;2023-01-10T09:32:56;5.60;99.90
24814;DHT22;12904;50.088;11.414;2023-01-10T09:35:23;5.60;99.90
24814;DHT22;12904;50.088;11.414;2023-01-10T09:37:52;5.60;99.90
24814;DHT22;12904;50.088;11.414;2023-01-10T09:40:30;5.60;99.90
24814;DHT22;12904;50.088;11.414;2023-01-10T09:43:04;5.60;99.90
24814;DHT22;12904;50.088;11.414;2023-01-10T09:45:38;5.60;99.90
24814;DHT22;12904;50.088;11.414;2023-01-10T09:48:26;5.60;99.90
24814;DHT22;12904;50.088;11.414;2023-01-10T09:51:08;5.60;99.90
24814;DHT22;12904;50.088;11.414;2023-01-10T09:53:36;5.60;99.90
24814;DHT22;12904;50.088;11.414;2023-01-10T09:56:06;5.60;99.90
24814;DHT22;12904;50.088;11.414;2023-01-10T09:58:34;5.60;99.90
24814;DHT22;12904;50.088;11.414;2023-01-10T10:01:12;5.60;99.90
24814;DHT22;12904;50.088;11.414;2023-01-10T10:04:00;5.70;99.90
24814;DHT22;12904;50.088;11.414;2023-01-10T10:06:28;5.60;99.90
24814;DHT22;12904;50.088;11.414;2023-01-10T10:08:53;5.60;99.90
24814;DHT22;12904;50.088;11.414;2023-01-10T10:19:32;5.70;99.90
24814;DHT22;12904;50.088;11.414;2023-01-10T10:22:09;5.80;99.90
24814;DHT22;12904;50.088;11.414;2023-01-10T10:27:28;6.00;99.90
24814;DHT22;12904;50.088;11.414;2023-01-10T10:30:02;6.00;99.90
24814;DHT22;12904;50.088;11.414;2023-01-10T10:35:52;6.10;99.90
24814;DHT22;12904;50.088;11.414;2023-01-10T10:38:26;6.10;99.90
24814;DHT22;12904;50.088;11.414;2023-01-10T10:40:55;6.10;99.90
24814;DHT22;12904;50.088;11.414;2023-01-10T10:43:28;6.10;99.90
24814;DHT22;12904;50.088;11.414;2023-01-10T10:46:08;6.10;99.90
24814;DHT22;12904;50.088;11.414;2023-01-10T10:48:39;6.00;99.90
24814;DHT22;12904;50.088;11.414;2023-01-10T10:51:11;6.00;99.90
24814;DHT22;12904;50.088;11.414;2023-01-10T10:53:38;6.00;99.90
24814;DHT22;12904;50.088;11.414;2023-01-10T10:56:06;6.00;99.90
24814;DHT22;12904;50.088;11.414;2023-01-10T10:58:37;6.00;99.90
24814;DHT22;12904;50.088;11.414;2023-01-10T11:01:04;6.00;99.90
24814;DHT22;12904;50.088;11.414;2023-01-10T11:03:37;5.90;99.90
24814;DHT22;12904;50.088;11.414;2023-01-10T11:06:05;5.90;99.90
24814;DHT22;12904;50.088;11.414;2023-01-10T11:08:35;5.90;99.90
24814;DHT22;12904;50.088;11.414;2023-01-10T11:11:28;5.90;99.90
24814;DHT22;12904;50.088;11.414;2023-01-10T11:13:59;5.90;99.90
24814;DHT22;12904;50.088;11.414;2023-01-10T11:16:30;5.90;99.90
24814;DHT22;12904;50.088;11.414;2023-01-10T11:21:39;5.90;99.90
24814;DHT22;12904;50.088;11.414;2023-01-10T11:26:54;5.90;99.90
24814;DHT22;12904;50.088;11.414;2023-01-10T11:31:53;5.90;99.90
24814;DHT22;12904;50.088;11.414;2023-01-10T11:36:51;5.90;99.90
24814;DHT22;12904;50.088;11.414;2023-01-10T11:39:16;5.80;99.90
24814;DHT22;12904;50.088;11.414;2023-01-10T11:41:42;5.80;99.90
24814;DHT22;12904;50.088;11.414;2023-01-10T11:46:43;5.70;99.90
24814;DHT22;12904;50.088;11.414;2023-01-10T11:49:17;5.70;99.90
24814;DHT22;12904;50.088;11.414;2023-01-10T11:51:50;5.70;99.90
24814;DHT22;12904;50.088;11.414;2023-01-10T11:54:24;5.70;99.90
24814;DHT22;12904;50.088;11.414;2023-01-10T11:57:05;5.80;99.90
24814;DHT22;12904;50.088;11.414;2023-01-10T11:59:31;5.80;99.90
24814;DHT22;12904;50.088;11.414;2023-01-10T12:04:44;5.90;99.90
24814;DHT22;12904;50.088;11.414;2023-01-10T12:07:13;5.90;99.90
24814;DHT22;12904;50.088;11.414;2023-01-10T12:09:42;5.90;99.90
24814;DHT22;12904;50.088;11.414;2023-01-10T12:14:50;5.90;99.90
24814;DHT22;12904;50.088;11.414;2023-01-10T12:17:28;5.90;99.90
24814;DHT22;12904;50.088;11.414;2023-01-10T12:19:57;5.90;99.90
24814;DHT22;12904;50.088;11.414;2023-01-10T12:22:39;5.90;99.90
24814;DHT22;12904;50.088;11.414;2023-01-10T12:25:21;5.90;99.90
24814;DHT22;12904;50.088;11.414;2023-01-10T12:27:48;5.90;99.90
24814;DHT22;12904;50.088;11.414;2023-01-10T12:30:29;5.90;99.90
24814;DHT22;12904;50.088;11.414;2023-01-10T12:32:59;5.90;99.90
24814;DHT22;12904;50.088;11.414;2023-01-10T12:41:42;5.90;99.90
24814;DHT22;12904;50.088;11.414;2023-01-10T12:44:50;6.00;99.90
24814;DHT22;12904;50.088;11.414;2023-01-10T12:50:21;6.00;99.90
24814;DHT22;12904;50.088;11.414;2023-01-10T12:55:40;6.00;99.90
24814;DHT22;12904;50.088;11.414;2023-01-10T12:58:15;6.10;99.90
24814;DHT22;12904;50.088;11.414;2023-01-10T13:00:45;6.10;99.90
24814;DHT22;12904;50.088;11.414;2023-01-10T13:03:23;6.10;99.90
24814;DHT22;12904;50.088;11.414;2023-01-10T13:05:49;6.10;99.90
24814;DHT22;12904;50.088;11.414;2023-01-10T13:08:21;6.10;99.90
24814;DHT22;12904;50.088;11.414;2023-01-10T13:10:50;6.10;99.90
24814;DHT22;12904;50.088;11.414;2023-01-10T13:13:39;6.20;99.90
24814;DHT22;12904;50.088;11.414;2023-01-10T13:16:44;6.30;99.90
24814;DHT22;12904;50.088;11.414;2023-01-10T13:21:40;6.50;99.90
24814;DHT22;12904;50.088;11.414;2023-01-10T13:31:51;6.50;99.90
24814;DHT22;12904;50.088;11.414;2023-01-10T13:34:41;6.30;99.90
24814;DHT22;12904;50.088;11.414;2023-01-10T13:37:29;6.30;99.90
24814;DHT22;12904;50.088;11.414;2023-01-10T13:39:59;6.30;99.90
24814;DHT22;12904;50.088;11.414;2023-01-10T13:52:48;6.20;99.90
24814;DHT22;12904;50.088;11.414;2023-01-10T13:57:51;5.90;99.90
24814;DHT22;12904;50.088;11.414;2023-01-10T14:00:24;5.80;99.90
24814;DHT22;12904;50.088;11.414;2023-01-10T14:03:39;5.60;99.90
24814;DHT22;12904;50.088;11.414;2023-01-10T14:08:58;5.50;99.90
24814;DHT22;12904;50.088;11.414;2023-01-10T14:17:20;5.80;99.90
24814;DHT22;12904;50.088;11.414;2023-01-10T14:19:49;5.80;99.90
24814;DHT22;12904;50.088;11.414;2023-01-10T14:22:26;5.90;99.90
24814;DHT22;12904;50.088;11.414;2023-01-10T14:24:52;6.00;99.90
24814;DHT22;12904;50.088;11.414;2023-01-10T14:27:19;5.90;99.90
24814;DHT22;12904;50.088;11.414;2023-01-10T14:35:00;5.60;99.90
24814;DHT22;12904;50.088;11.414;2023-01-10T14:37:39;5.60;99.90
24814;DHT22;12904;50.088;11.414;2023-01-10T14:42:42;5.60;99.90
24814;DHT22;12904;50.088;11.414;2023-01-10T14:45:33;5.50;99.90
24814;DHT22;12904;50.088;11.414;2023-01-10T14:50:46;5.40;99.90
24814;DHT22;12904;50.088;11.414;2023-01-10T14:53:28;5.40;99.90
24814;DHT22;12904;50.088;11.414;2023-01-10T14:55:54;5.40;99.90
24814;DHT22;12904;50.088;11.414;2023-01-10T14:58:20;5.40;99.90
24814;DHT22;12904;50.088;11.414;2023-01-10T15:00:47;5.40;99.90
24814;DHT22;12904;50.088;11.414;2023-01-10T15:03:19;5.40;99.90
24814;DHT22;12904;50.088;11.414;2023-01-10T15:05:49;5.40;99.90
24814;DHT22;12904;50.088;11.414;2023-01-10T15:08:23;5.40;99.90
24814;DHT22;12904;50.088;11.414;2023-01-10T15:10:52;5.40;99.90
24814;DHT22;12904;50.088;11.414;2023-01-10T15:13:23;5.30;99.90
24814;DHT22;12904;50.088;11.414;2023-01-10T15:15:50;5.30;99.90
24814;DHT22;12904;50.088;11.414;2023-01-10T15:20:47;5.30;99.90
24814;DHT22;12904;50.088;11.414;2023-01-10T15:23:14;5.20;99.90
24814;DHT22;12904;50.088;11.414;2023-01-10T15:25:41;5.20;99.90
24814;DHT22;12904;50.088;11.414;2023-01-10T15:28:15;5.20;99.90
24814;DHT22;12904;50.088;11.414;2023-01-10T15:30:41;5.10;99.90
24814;DHT22;12904;50.088;11.414;2023-01-10T15:33:18;5.00;99.90
24814;DHT22;12904;50.088;11.414;2023-01-10T15:35:46;5.00;99.90
24814;DHT22;12904;50.088;11.414;2023-01-10T15:38:21;5.00;99.90
24814;DHT22;12904;50.088;11.414;2023-01-10T15:41:04;4.90;99.90
24814;DHT22;12904;50.088;11.414;2023-01-10T15:43:32;4.80;99.90
24814;DHT22;12904;50.088;11.414;2023-01-10T15:46:00;4.80;99.90
24814;DHT22;12904;50.088;11.414;2023-01-10T15:48:35;4.70;99.90
24814;DHT22;12904;50.088;11.414;2023-01-10T15:51:27;4.60;99.90
24814;DHT22;12904;50.088;11.414;2023-01-10T15:56:48;4.60;99.90
24814;DHT22;12904;50.088;11.414;2023-01-10T16:04:19;4.60;99.90
24814;DHT22;12904;50.088;11.414;2023-01-10T16:06:46;4.60;99.90
24814;DHT22;12904;50.088;11.414;2023-01-10T16:09:21;4.60;99.90
24814;DHT22;12904;50.088;11.414;2023-01-10T16:11:49;4.60;99.90
24814;DHT22;12904;50.088;11.414;2023-01-10T16:14:34;4.60;99.90
24814;DHT22;12904;50.088;11.414;2023-01-10T16:17:01;4.70;99.90
24814;DHT22;12904;50.088;11.414;2023-01-10T16:19:27;4.60;99.90
24814;DHT22;12904;50.088;11.414;2023-01-10T16:21:55;4.70;99.90
24814;DHT22;12904;50.088;11.414;2023-01-10T16:24:26;4.60;99.90
24814;DHT22;12904;50.088;11.414;2023-01-10T16:26:53;4.70;99.90
24814;DHT22;12904;50.088;11.414;2023-01-10T16:29:20;4.70;99.90
24814;DHT22;12904;50.088;11.414;2023-01-10T16:31:50;4.70;99.90
24814;DHT22;12904;50.088;11.414;2023-01-10T16:34:19;4.70;99.90
24814;DHT22;12904;50.088;11.414;2023-01-10T16:36:45;4.70;99.90
24814;DHT22;12904;50.088;11.414;2023-01-10T16:39:17;4.60;99.90
24814;DHT22;12904;50.088;11.414;2023-01-10T16:41:43;4.70;99.90
24814;DHT22;12904;50.088;11.414;2023-01-10T16:44:45;4.70;99.90
24814;DHT22;12904;50.088;11.414;2023-01-10T16:47:10;4.70;99.90
24814;DHT22;12904;50.088;11.414;2023-01-10T16:49:36;4.80;99.90
24814;DHT22;12904;50.088;11.414;2023-01-10T16:52:02;4.70;99.90
24814;DHT22;12904;50.088;11.414;2023-01-10T16:54:27;4.70;99.90
24814;DHT22;12904;50.088;11.414;2023-01-10T16:56:53;4.60;99.90
24814;DHT22;12904;50.088;11.414;2023-01-10T16:59:20;4.60;99.90
24814;DHT22;12904;50.088;11.414;2023-01-10T17:01:52;4.60;99.90
24814;DHT22;12904;50.088;11.414;2023-01-10T17:04:21;4.40;99.90
24814;DHT22;12904;50.088;11.414;2023-01-10T17:06:48;4.30;99.90
24814;DHT22;12904;50.088;11.414;2023-01-10T17:09:23;4.10;99.90
24814;DHT22;12904;50.088;11.414;2023-01-10T17:12:02;3.90;99.90
24814;DHT22;12904;50.088;11.414;2023-01-10T17:14:31;3.80;99.90
24814;DHT22;12904;50.088;11.414;2023-01-10T17:16:57;3.60;99.90
24814;DHT22;12904;50.088;11.414;2023-01-10T17:19:23;3.60;99.90
24814;DHT22;12904;50.088;11.414;2023-01-10T17:21:48;3.50;99.90
24814;DHT22;12904;50.088;11.414;2023-01-10T17:24:14;3.40;99.90
24814;DHT22;12904;50.088;11.414;2023-01-10T17:26:41;3.20;99.90
24814;DHT22;12904;50.088;11.414;2023-01-10T17:29:06;3.10;99.90
24814;DHT22;12904;50.088;11.414;2023-01-10T17:31:32;3.00;99.90
24814;DHT22;12904;50.088;11.414;2023-01-10T17:33:58;3.00;99.90
24814;DHT22;12904;50.088;11.414;2023-01-10T17:36:23;3.00;99.90
24814;DHT22;12904;50.088;11.414;2023-01-10T17:38:54;3.00;99.90
24814;DHT22;12904;50.088;11.414;2023-01-10T17:41:20;2.90;99.90
24814;DHT22;12904;50.088;11.414;2023-01-10T17:43:46;2.90;99.90
24814;DHT22;12904;50.088;11.414;2023-01-10T17:46:11;2.90;99.90
24814;DHT22;12904;50.088;11.414;2023-01-10T17:48:38;2.90;99.90
24814;DHT22;12904;50.088;11.414;2023-01-10T17:51:04;2.90;99.90
24814;DHT22;12904;50.088;11.414;2023-01-10T17:53:30;2.80;99.90
24814;DHT22;12904;50.088;11.414;2023-01-10T17:55:56;2.70;99.90